createdAt,value
2022-09-12T00:03:08.145Z,9.93
2022-09-12T00:08:10.009Z,9.86
2022-09-12T00:13:11.721Z,9.83
2022-09-12T00:18:16.010Z,9.82
2022-09-12T00:23:18.665Z,9.84
2022-09-12T00:28:19.863Z,9.90
2022-09-12T00:33:21.647Z,9.97
2022-09-12T00:38:22.709Z,10.00
2022-09-12T00:43:30.034Z,9.99
2022-09-12T00:48:37.563Z,9.94
2022-09-12T00:53:42.959Z,9.90
2022-09-12T00:58:57.796Z,9.89
2022-09-12T01:04:00.534Z,9.91
2022-09-12T01:09:04.111Z,9.91
2022-09-12T01:14:07.082Z,9.91
2022-09-12T01:19:39.936Z,9.88
2022-09-12T01:25:00.011Z,9.88
2022-09-12T01:30:13.730Z,9.88
2022-09-12T01:35:26.988Z,9.89
2022-09-12T01:40:43.202Z,9.88
2022-09-12T01:46:11.144Z,9.85
2022-09-12T01:51:17.277Z,9.83
2022-09-12T01:56:25.793Z,9.80
2022-09-12T02:01:30.214Z,9.80
2022-09-12T02:06:37.740Z,9.79
2022-09-12T02:11:42.840Z,9.76
2022-09-12T02:17:11.409Z,9.72
2022-09-12T02:22:17.016Z,9.70
2022-09-12T02:27:24.334Z,9.69
2022-09-12T02:32:37.501Z,9.69
2022-09-12T02:37:45.314Z,9.70
2022-09-12T02:42:46.512Z,9.73
2022-09-12T02:47:49.987Z,9.78
2022-09-12T02:52:53.996Z,9.85
2022-09-12T02:57:55.199Z,9.92
2022-09-12T03:03:04.784Z,9.96
2022-09-12T03:08:34.657Z,9.98
2022-09-12T03:13:45.844Z,9.97
2022-09-12T03:18:47.103Z,9.98
2022-09-12T03:24:10.526Z,10.01
2022-09-12T03:29:14.289Z,10.07
2022-09-12T03:34:16.066Z,10.15
2022-09-12T03:39:17.714Z,10.22
2022-09-12T03:44:19.212Z,10.24
2022-09-12T03:49:20.429Z,10.23
2022-09-12T03:54:21.501Z,10.22
2022-09-12T03:59:22.680Z,10.24
2022-09-12T04:04:23.941Z,10.25
2022-09-12T04:09:25.082Z,10.23
2022-09-12T04:14:26.241Z,10.20
2022-09-12T04:19:27.419Z,10.19
2022-09-12T04:24:28.689Z,10.23
2022-09-12T04:29:30.778Z,10.26
2022-09-12T04:34:32.005Z,10.33
2022-09-12T04:39:34.794Z,10.44
2022-09-12T04:44:37.082Z,10.52
2022-09-12T04:49:40.113Z,10.67
2022-09-12T04:54:41.247Z,10.80
2022-09-12T04:59:42.643Z,10.93
2022-09-12T05:04:46.155Z,11.10
2022-09-12T05:09:47.426Z,11.28
2022-09-12T05:14:48.664Z,11.49
2022-09-12T05:19:50.289Z,11.67
2022-09-12T05:24:51.363Z,11.67
2022-09-12T05:29:52.780Z,11.64
2022-09-12T05:34:54.085Z,11.71
2022-09-12T05:39:56.355Z,11.75
2022-09-12T05:44:57.881Z,11.77
2022-09-12T05:49:59.118Z,11.84
2022-09-12T05:55:00.203Z,11.99
2022-09-12T06:00:02.245Z,12.08
2022-09-12T06:05:03.790Z,12.18
2022-09-12T06:10:05.290Z,12.36
2022-09-12T06:15:07.351Z,12.58
2022-09-12T06:20:08.947Z,12.79
2022-09-12T06:25:10.136Z,13.00
2022-09-12T06:30:12.111Z,13.23
2022-09-12T06:35:13.546Z,13.47
2022-09-12T06:40:15.230Z,13.70
2022-09-12T06:45:19.176Z,14.02
2022-09-12T06:50:21.575Z,14.21
2022-09-12T06:55:27.637Z,14.43
2022-09-12T07:00:29.327Z,14.68
2022-09-12T07:05:33.115Z,14.95
2022-09-12T07:10:34.347Z,15.17
2022-09-12T07:15:35.994Z,15.48
2022-09-12T07:20:37.670Z,15.61
2022-09-12T07:25:39.206Z,15.69
2022-09-12T07:30:40.754Z,15.87
2022-09-12T07:35:41.951Z,16.19
2022-09-12T07:40:43.465Z,16.52
2022-09-12T07:45:44.683Z,16.74
2022-09-12T07:50:46.198Z,16.65
2022-09-12T07:55:53.812Z,16.59
2022-09-12T08:01:04.901Z,16.58
2022-09-12T08:06:25.606Z,16.55
2022-09-12T08:11:28.838Z,16.55
2022-09-12T08:16:31.135Z,16.52
2022-09-12T08:21:33.626Z,16.45
2022-09-12T08:26:35.316Z,16.38
2022-09-12T08:31:37.429Z,16.26
2022-09-12T08:36:38.539Z,16.39
2022-09-12T08:41:47.132Z,16.72
2022-09-12T08:46:56.614Z,16.92
2022-09-12T08:52:02.424Z,16.90
2022-09-12T08:57:05.290Z,16.86
2022-09-12T09:02:26.496Z,16.94
2022-09-12T09:07:51.750Z,16.87
2022-09-12T09:13:11.730Z,16.77
2022-09-12T09:18:24.300Z,16.98
2022-09-12T09:23:47.642Z,17.35
2022-09-12T09:29:10.752Z,17.60
2022-09-12T09:34:21.330Z,17.79
2022-09-12T09:39:47.674Z,18.38
2022-09-12T09:44:52.986Z,18.72
2022-09-12T09:49:54.179Z,18.75
2022-09-12T09:54:59.092Z,18.66
2022-09-12T10:00:26.479Z,19.05
2022-09-12T10:05:29.015Z,19.22
2022-09-12T10:10:30.505Z,19.24
2022-09-12T10:15:34.031Z,19.29
2022-09-12T10:20:44.538Z,19.22
2022-09-12T10:25:54.281Z,19.20
2022-09-12T10:30:56.147Z,19.28
2022-09-12T10:35:57.857Z,19.42
2022-09-12T10:41:08.906Z,19.49
2022-09-12T10:46:30.550Z,19.45
2022-09-12T10:51:32.280Z,19.31
2022-09-12T10:57:11.799Z,19.20
2022-09-12T11:02:35.071Z,19.16
2022-09-12T11:07:53.368Z,19.11
2022-09-12T11:12:57.703Z,19.19
2022-09-12T11:18:26.268Z,19.35
2022-09-12T11:23:52.882Z,19.18
2022-09-12T11:28:54.224Z,18.95
2022-09-12T11:33:58.522Z,18.94
2022-09-12T11:39:12.717Z,19.19
2022-09-12T11:44:23.042Z,19.58
2022-09-12T11:49:44.024Z,20.23
2022-09-12T11:55:10.603Z,19.64
2022-09-12T12:00:31.521Z,18.96
2022-09-12T12:06:00.776Z,18.82
2022-09-12T12:11:05.428Z,18.92
2022-09-12T12:16:15.227Z,19.09
2022-09-12T12:21:41.734Z,19.05
2022-09-12T12:26:56.599Z,18.82
2022-09-12T12:32:00.188Z,18.71
2022-09-12T12:37:20.432Z,18.52
2022-09-12T12:42:42.426Z,18.36
2022-09-12T12:47:46.888Z,18.52
2022-09-12T12:53:08.945Z,18.91
2022-09-12T12:58:32.505Z,19.45
2022-09-12T13:03:34.478Z,19.23
2022-09-12T13:08:39.968Z,18.78
2022-09-12T13:13:56.474Z,18.40
2022-09-12T13:19:03.817Z,18.07
2022-09-12T13:24:15.185Z,17.87
2022-09-12T13:29:19.174Z,17.73
2022-09-12T13:34:31.243Z,17.98
2022-09-12T13:40:00.644Z,18.32
2022-09-12T13:45:26.372Z,18.92
2022-09-12T13:50:32.747Z,19.44
2022-09-12T13:55:45.426Z,19.33
2022-09-12T14:01:04.726Z,19.13
2022-09-12T14:06:07.733Z,19.32
2022-09-12T14:11:11.224Z,19.60
2022-09-12T14:16:14.709Z,19.89
2022-09-12T14:21:33.354Z,19.89
2022-09-12T14:26:39.827Z,19.46
2022-09-12T14:31:46.200Z,19.39
2022-09-12T14:36:50.295Z,19.38
2022-09-12T14:42:06.348Z,19.52
2022-09-12T14:47:17.975Z,19.78
2022-09-12T14:52:29.198Z,19.78
2022-09-12T14:57:35.692Z,19.65
2022-09-12T15:02:37.974Z,19.48
2022-09-12T15:08:01.879Z,19.36
2022-09-12T15:13:18.687Z,19.37
2022-09-12T15:18:21.472Z,19.55
2022-09-12T15:23:49.049Z,19.60
2022-09-12T15:28:50.734Z,19.32
2022-09-12T15:33:54.075Z,19.09
2022-09-12T15:38:58.060Z,18.85
2022-09-12T15:43:59.835Z,18.56
2022-09-12T15:49:03.896Z,18.40
2022-09-12T15:54:08.206Z,18.25
2022-09-12T15:59:09.558Z,18.07
2022-09-12T16:04:30.427Z,18.01
2022-09-12T16:09:32.705Z,17.80
2022-09-12T16:14:34.736Z,17.46
2022-09-12T16:19:36.591Z,17.21
2022-09-12T16:24:41.175Z,17.02
2022-09-12T16:29:42.777Z,16.70
2022-09-12T16:34:44.172Z,16.40
2022-09-12T16:39:48.196Z,16.19
2022-09-12T16:44:49.977Z,15.97
2022-09-12T16:49:52.818Z,15.71
2022-09-12T16:54:54.234Z,15.46
2022-09-12T16:59:55.992Z,15.22
2022-09-12T17:04:58.710Z,15.00
2022-09-12T17:10:00.487Z,14.78
2022-09-12T17:15:02.402Z,14.59
2022-09-12T17:20:04.417Z,14.42
2022-09-12T17:25:06.412Z,14.27
2022-09-12T17:30:09.158Z,14.13
2022-09-12T17:35:10.846Z,13.98
2022-09-12T17:40:13.297Z,13.80
2022-09-12T17:45:18.448Z,13.59
2022-09-12T17:50:39.263Z,13.38
2022-09-12T17:55:41.112Z,13.21
2022-09-12T18:01:01.012Z,13.11
2022-09-12T18:06:02.273Z,12.98
2022-09-12T18:11:04.915Z,12.87
2022-09-12T18:16:12.022Z,12.73
2022-09-12T18:21:13.528Z,12.60
2022-09-12T18:26:14.934Z,12.52
2022-09-12T18:31:20.235Z,12.56
2022-09-12T18:36:22.391Z,12.64
2022-09-12T18:41:24.679Z,12.69
2022-09-12T18:46:31.773Z,12.72
2022-09-12T18:51:35.519Z,12.68
2022-09-12T18:56:38.649Z,12.58
2022-09-12T19:01:41.605Z,12.42
2022-09-12T19:06:46.111Z,12.25
2022-09-12T19:11:48.955Z,12.09
2022-09-12T19:16:51.361Z,11.99
2022-09-12T19:21:53.360Z,11.87
2022-09-12T19:26:54.642Z,11.74
2022-09-12T19:31:56.572Z,11.62
2022-09-12T19:37:01.448Z,11.54
2022-09-12T19:42:03.039Z,11.46
2022-09-12T19:47:04.251Z,11.37
2022-09-12T19:52:05.529Z,11.25
2022-09-12T19:57:06.806Z,11.15
2022-09-12T20:02:08.020Z,11.06
2022-09-12T20:07:09.529Z,11.00
2022-09-12T20:12:10.816Z,10.95
2022-09-12T20:17:12.073Z,10.88
2022-09-12T20:22:13.377Z,10.80
2022-09-12T20:27:14.781Z,10.72
2022-09-12T20:32:17.635Z,10.68
2022-09-12T20:37:19.111Z,10.63
2022-09-12T20:42:20.370Z,10.57
2022-09-12T20:47:21.534Z,10.52
2022-09-12T20:52:22.937Z,10.45
2022-09-12T20:57:24.180Z,10.35
2022-09-12T21:02:25.385Z,10.24
2022-09-12T21:07:26.865Z,10.18
2022-09-12T21:12:28.042Z,10.15
2022-09-12T21:17:29.169Z,10.10
2022-09-12T21:22:31.253Z,9.99
2022-09-12T21:27:32.755Z,9.86
2022-09-12T21:32:35.333Z,9.75
2022-09-12T21:37:36.465Z,9.68
2022-09-12T21:42:37.497Z,9.66
2022-09-12T21:47:38.700Z,9.66
2022-09-12T21:52:40.741Z,9.64
2022-09-12T21:57:41.969Z,9.59
2022-09-12T22:02:43.448Z,9.54
2022-09-12T22:07:44.478Z,9.45
2022-09-12T22:12:46.459Z,9.39
2022-09-12T22:17:47.991Z,9.33
2022-09-12T22:23:08.388Z,9.28
2022-09-12T22:28:09.736Z,9.25
2022-09-12T22:33:10.897Z,9.18
2022-09-12T22:38:12.496Z,9.13
2022-09-12T22:43:13.666Z,9.06
2022-09-12T22:48:16.453Z,9.00
2022-09-12T22:53:17.926Z,8.95
2022-09-12T22:58:19.028Z,8.93
2022-09-12T23:03:20.735Z,8.92
2022-09-12T23:08:21.950Z,8.87
2022-09-12T23:13:22.997Z,8.82
2022-09-12T23:18:24.466Z,8.76
2022-09-12T23:23:26.257Z,8.69
2022-09-12T23:28:28.226Z,8.65
2022-09-12T23:33:31.142Z,8.62
2022-09-12T23:38:35.543Z,8.57
2022-09-12T23:43:37.143Z,8.53
2022-09-12T23:48:39.409Z,8.49
2022-09-12T23:53:40.941Z,8.45
2022-09-12T23:58:42.239Z,8.40
